Time;durP1;ratioP1;P1;durP2;ratioP2;P2;SDS_P1;SDS_P2;PMS_P1;PMS_P2;Temp;Humidity;BMP_temperature;BMP_pressure;BME280_temperature;BME280_humidity;BME280_pressure;Samples;Min_cycle;Max_cycle;Signal;HPM_P1;HPM_P2
2022/07/21 00:00:41;;;;;;;15.70;5.80;;;21.90;30.20;;;;;;5060351;28;46358;-62
2022/07/21 00:03:07;;;;;;;8.00;4.70;;;21.80;30.50;;;;;;5060088;28;46288;-62
2022/07/21 00:05:34;;;;;;;12.30;5.57;;;21.80;32.20;;;;;;5058068;28;46334;-61
2022/07/21 00:07:59;;;;;;;10.30;5.63;;;21.70;31.70;;;;;;5059338;28;46342;-63
2022/07/21 00:10:26;;;;;;;9.50;5.77;;;21.50;32.50;;;;;;5059505;28;46408;-63
2022/07/21 00:12:53;;;;;;;9.47;5.50;;;21.40;33.10;;;;;;5060409;28;46384;-63
2022/07/21 00:15:21;;;;;;;10.17;5.33;;;21.40;33.70;;;;;;5059252;28;46452;-62
2022/07/21 00:17:46;;;;;;;8.97;5.20;;;21.30;34.20;;;;;;5059068;28;45800;-62
2022/07/21 00:20:13;;;;;;;13.00;6.17;;;21.30;34.60;;;;;;5057966;28;46544;-63
2022/07/21 00:22:39;;;;;;;6.80;5.10;;;21.30;36.00;;;;;;5058818;28;47298;-62
2022/07/21 00:25:07;;;;;;;8.30;6.30;;;21.20;35.10;;;;;;5059309;28;46500;-62
2022/07/21 00:27:33;;;;;;;10.20;6.20;;;21.20;35.10;;;;;;5058667;28;46268;-62
2022/07/21 00:29:59;;;;;;;7.83;5.63;;;21.10;35.00;;;;;;5057903;28;46481;-62
2022/07/21 00:32:25;;;;;;;7.87;5.57;;;21.10;35.70;;;;;;5059675;28;46699;-62
2022/07/21 00:34:51;;;;;;;8.20;5.90;;;21.00;36.10;;;;;;5059404;28;46357;-62
2022/07/21 00:37:16;;;;;;;11.70;5.50;;;21.10;36.40;;;;;;5059028;28;46079;-62
2022/07/21 00:39:42;;;;;;;7.80;5.73;;;21.10;36.30;;;;;;5060679;28;46376;-63
2022/07/21 00:42:08;;;;;;;10.50;5.77;;;21.20;36.40;;;;;;5059263;28;47266;-63
2022/07/21 00:44:33;;;;;;;13.30;6.20;;;21.20;36.20;;;;;;5059580;28;46361;-62
2022/07/21 00:46:59;;;;;;;10.37;6.53;;;21.30;36.30;;;;;;5059325;28;46318;-62
2022/07/21 00:49:25;;;;;;;10.67;5.77;;;21.30;36.20;;;;;;5060103;28;46504;-62
2022/07/21 00:51:52;;;;;;;8.23;5.10;;;21.30;36.20;;;;;;5059291;28;46939;-62
2022/07/21 00:54:18;;;;;;;9.07;5.87;;;21.40;36.20;;;;;;5058090;28;46519;-62
2022/07/21 00:56:45;;;;;;;9.50;6.03;;;21.40;36.10;;;;;;5059250;28;46473;-63
2022/07/21 00:59:11;;;;;;;9.00;5.90;;;21.30;36.10;;;;;;5057218;28;46424;-64
2022/07/21 01:01:37;;;;;;;9.00;6.57;;;21.40;36.10;;;;;;5059634;28;46376;-62
2022/07/21 01:04:03;;;;;;;10.53;6.47;;;21.40;36.10;;;;;;5060321;28;46448;-63
2022/07/21 01:06:28;;;;;;;8.07;5.83;;;21.40;36.00;;;;;;5059461;28;46346;-63
2022/07/21 01:08:54;;;;;;;10.00;6.27;;;21.40;36.10;;;;;;5066820;28;45951;-63
2022/07/21 01:11:20;;;;;;;8.70;6.83;;;21.40;36.40;;;;;;5062688;28;47251;-62
2022/07/21 01:13:47;;;;;;;9.33;6.53;;;21.40;36.70;;;;;;5062074;28;46107;-62
2022/07/21 01:16:13;;;;;;;9.73;6.23;;;21.30;37.00;;;;;;5061955;28;46377;-62
2022/07/21 01:18:40;;;;;;;12.20;7.60;;;21.20;37.20;;;;;;5061141;28;46347;-63
2022/07/21 01:21:29;;;;;;;10.73;6.80;;;21.20;37.50;;;;;;5061337;28;46445;-62
2022/07/21 01:23:55;;;;;;;10.53;6.57;;;21.20;37.90;;;;;;5061125;28;45745;-62
2022/07/21 01:26:21;;;;;;;11.03;7.10;;;21.20;37.60;;;;;;5061769;28;46398;-63
2022/07/21 01:28:46;;;;;;;15.47;6.90;;;21.10;37.70;;;;;;5061522;28;46340;-62
2022/07/21 01:31:12;;;;;;;8.00;5.57;;;21.10;37.80;;;;;;5060695;28;46465;-63
2022/07/21 01:33:38;;;;;;;8.10;6.23;;;21.10;37.90;;;;;;5061187;27;46639;-62
2022/07/21 01:36:03;;;;;;;9.93;6.27;;;21.10;38.10;;;;;;5060394;28;46449;-63
2022/07/21 01:44:05;;;;;;;11.57;7.23;;;21.20;38.00;;;;;;5062262;28;46425;-62
2022/07/21 01:46:34;;;;;;;11.57;7.60;;;21.10;38.10;;;;;;5061154;28;46427;-63
2022/07/21 01:49:00;;;;;;;10.70;7.60;;;21.10;38.40;;;;;;5061466;28;46643;-62
2022/07/21 01:51:26;;;;;;;9.60;7.20;;;21.00;38.80;;;;;;5059703;28;48013;-63
2022/07/21 01:53:52;;;;;;;10.40;7.33;;;21.10;39.00;;;;;;5060583;28;46350;-64
2022/07/21 01:56:23;;;;;;;11.80;7.50;;;21.10;38.90;;;;;;5060357;28;46459;-63
2022/07/21 01:58:50;;;;;;;11.43;7.83;;;21.10;38.80;;;;;;5059568;28;46525;-62
2022/07/21 02:01:17;;;;;;;14.97;8.00;;;21.10;38.80;;;;;;5060259;28;48014;-63
2022/07/21 02:03:44;;;;;;;12.17;8.10;;;21.10;39.10;;;;;;5060321;28;46708;-62
2022/07/21 02:06:10;;;;;;;10.60;7.50;;;21.10;39.20;;;;;;5060735;28;46429;-62
2022/07/21 02:08:36;;;;;;;13.83;7.40;;;21.10;39.20;;;;;;5060571;28;46409;-62
2022/07/21 02:11:03;;;;;;;12.47;8.10;;;21.10;39.40;;;;;;5060720;28;46380;-63
2022/07/21 02:13:28;;;;;;;11.83;9.13;;;21.10;39.70;;;;;;5059423;28;46488;-63
2022/07/21 02:15:54;;;;;;;11.63;9.43;;;21.10;39.90;;;;;;5061297;28;46458;-62
2022/07/21 02:18:20;;;;;;;15.83;11.80;;;21.10;40.40;;;;;;5059588;28;46475;-62
2022/07/21 02:20:47;;;;;;;16.53;11.40;;;21.00;40.80;;;;;;5059005;28;46530;-61
2022/07/21 02:23:13;;;;;;;16.87;12.00;;;20.90;41.40;;;;;;5059374;28;46049;-62
2022/07/21 02:25:39;;;;;;;14.80;11.40;;;20.90;42.20;;;;;;5061236;28;46437;-62
2022/07/21 02:28:05;;;;;;;15.43;11.43;;;20.90;42.80;;;;;;5060254;28;46590;-63
2022/07/21 02:30:31;;;;;;;19.93;12.83;;;20.90;43.20;;;;;;5059125;28;46935;-63
2022/07/21 02:32:56;;;;;;;17.00;12.63;;;20.90;43.40;;;;;;5060377;28;46844;-63
2022/07/21 02:35:22;;;;;;;18.73;12.37;;;20.90;43.90;;;;;;5059739;28;46318;-63
2022/07/21 02:37:47;;;;;;;18.77;13.30;;;20.90;44.30;;;;;;5059651;28;46501;-64
2022/07/21 02:40:13;;;;;;;18.93;13.93;;;20.90;44.70;;;;;;5060898;28;47226;-64
2022/07/21 02:42:39;;;;;;;17.17;13.73;;;20.90;45.00;;;;;;5058941;28;46443;-64
2022/07/21 02:45:08;;;;;;;19.03;14.10;;;20.80;45.40;;;;;;5059926;28;46464;-65
2022/07/21 02:48:07;;;;;;;22.47;14.60;;;20.90;45.80;;;;;;5058897;28;46468;-63
2022/07/21 02:50:35;;;;;;;24.37;13.40;;;20.80;46.30;;;;;;5056758;28;46508;-64
2022/07/21 02:53:03;;;;;;;19.00;13.60;;;20.80;45.90;;;;;;5059784;28;46460;-63
2022/07/21 02:55:29;;;;;;;24.93;13.60;;;20.70;47.90;;;;;;5060640;28;46720;-63
2022/07/21 02:58:13;;;;;;;18.33;14.80;;;20.60;48.50;;;;;;5058538;28;46721;-62
2022/07/21 03:00:42;;;;;;;19.17;15.13;;;20.60;49.30;;;;;;5057962;28;47171;-63
2022/07/21 03:03:08;;;;;;;21.80;14.00;;;20.60;48.80;;;;;;5059801;28;45822;-63
2022/07/21 03:05:35;;;;;;;20.80;14.73;;;20.60;48.80;;;;;;5058646;28;46409;-63
2022/07/21 03:08:02;;;;;;;21.43;14.97;;;20.70;48.30;;;;;;5060144;28;46456;-63
2022/07/21 03:10:27;;;;;;;18.73;15.20;;;20.70;48.30;;;;;;5060317;28;48855;-63
2022/07/21 03:12:53;;;;;;;24.20;15.80;;;20.70;48.60;;;;;;5060344;28;46461;-63
2022/07/21 03:15:19;;;;;;;21.23;15.10;;;20.70;49.10;;;;;;5059457;28;46405;-63
2022/07/21 03:17:45;;;;;;;18.93;14.97;;;20.70;49.40;;;;;;5059340;28;46540;-63
2022/07/21 03:20:10;;;;;;;27.60;14.50;;;20.70;50.00;;;;;;5059187;28;47230;-63
2022/07/21 03:22:36;;;;;;;25.43;15.13;;;20.60;49.90;;;;;;5061483;28;46488;-63
2022/07/21 03:25:04;;;;;;;19.60;14.67;;;20.70;49.90;;;;;;5059922;28;46381;-63
2022/07/21 03:27:29;;;;;;;25.93;17.30;;;20.70;50.10;;;;;;5060432;28;45897;-63
2022/07/21 03:29:55;;;;;;;27.10;16.60;;;20.80;50.10;;;;;;5059910;28;46400;-63
2022/07/21 03:32:21;;;;;;;24.37;15.87;;;20.80;50.00;;;;;;5059924;28;46534;-63
2022/07/21 03:34:46;;;;;;;24.90;16.73;;;20.80;50.00;;;;;;5061476;28;46548;-64
2022/07/21 03:37:12;;;;;;;23.37;15.80;;;20.80;50.20;;;;;;5063310;28;46500;-64
2022/07/21 03:39:38;;;;;;;20.30;16.70;;;20.80;50.40;;;;;;5065186;28;46441;-62
2022/07/21 03:42:03;;;;;;;22.63;17.10;;;20.80;50.70;;;;;;5061313;28;46421;-62
2022/07/21 03:44:29;;;;;;;25.37;17.87;;;20.80;51.10;;;;;;5060500;28;46593;-63
2022/07/21 03:46:56;;;;;;;26.67;18.27;;;20.70;51.50;;;;;;5058590;28;46435;-63
2022/07/21 03:49:22;;;;;;;29.47;17.03;;;20.70;51.80;;;;;;5059114;28;46766;-62
2022/07/21 03:51:48;;;;;;;22.67;16.53;;;20.70;52.20;;;;;;5059529;28;46529;-61
2022/07/21 03:54:14;;;;;;;26.00;17.80;;;20.60;52.50;;;;;;5060757;28;46348;-62
2022/07/21 03:56:39;;;;;;;29.63;18.60;;;20.70;52.80;;;;;;5059068;28;46458;-61
2022/07/21 03:59:05;;;;;;;23.43;16.80;;;20.60;53.00;;;;;;5057853;28;46393;-61
2022/07/21 04:01:30;;;;;;;23.10;17.60;;;20.60;53.20;;;;;;5058376;28;46366;-61
2022/07/21 04:03:56;;;;;;;26.10;18.83;;;20.60;53.30;;;;;;5060811;28;46458;-61
2022/07/21 04:06:21;;;;;;;24.63;17.13;;;20.60;53.50;;;;;;5059447;28;46396;-62
2022/07/21 04:08:47;;;;;;;25.20;17.63;;;20.60;53.70;;;;;;5058138;28;46571;-62
2022/07/21 04:11:13;;;;;;;28.67;18.53;;;20.60;53.80;;;;;;5060298;28;46468;-62
2022/07/21 04:13:38;;;;;;;22.40;17.33;;;20.70;53.80;;;;;;5059871;28;46600;-63
2022/07/21 04:16:04;;;;;;;24.70;17.30;;;20.70;53.80;;;;;;5060201;28;46550;-64
2022/07/21 04:18:30;;;;;;;26.10;19.70;;;20.70;54.00;;;;;;5060234;28;46403;-64
2022/07/21 04:20:55;;;;;;;21.70;18.20;;;20.60;54.50;;;;;;5069053;28;45967;-63
2022/07/21 04:23:21;;;;;;;25.27;19.07;;;20.60;54.90;;;;;;5068304;28;46460;-64
2022/07/21 04:25:47;;;;;;;31.80;20.43;;;20.60;55.30;;;;;;5069401;28;46775;-62
2022/07/21 04:28:12;;;;;;;25.73;20.60;;;20.50;55.80;;;;;;5068407;28;46482;-61
2022/07/21 04:30:38;;;;;;;24.53;18.57;;;20.50;56.20;;;;;;5069558;28;45944;-62
2022/07/21 04:33:04;;;;;;;37.37;20.10;;;20.50;56.60;;;;;;5068477;28;46759;-62
2022/07/21 04:35:29;;;;;;;24.10;20.33;;;20.50;56.80;;;;;;5068450;28;46705;-62
2022/07/21 04:37:55;;;;;;;29.10;21.13;;;20.50;57.00;;;;;;5066454;28;47135;-62
2022/07/21 04:40:21;;;;;;;27.10;20.73;;;20.60;57.00;;;;;;5068335;28;46540;-61
2022/07/21 04:42:46;;;;;;;30.33;20.40;;;20.60;57.00;;;;;;5064153;28;45850;-62
2022/07/21 04:45:14;;;;;;;31.27;20.10;;;20.60;56.90;;;;;;5066125;28;46639;-61
2022/07/21 04:47:48;;;;;;;29.00;20.67;;;20.70;56.60;;;;;;5060277;28;48107;-63
2022/07/21 04:50:16;;;;;;;27.70;20.20;;;20.80;56.60;;;;;;5063665;28;46303;-65
2022/07/21 04:52:42;;;;;;;27.80;20.57;;;20.90;56.50;;;;;;5062750;28;45916;-63
2022/07/21 04:55:09;;;;;;;30.47;19.87;;;21.00;56.30;;;;;;5064432;28;46632;-62
2022/07/21 04:57:40;;;;;;;30.00;20.60;;;21.20;56.10;;;;;;5061078;28;46509;-63
2022/07/21 05:00:08;;;;;;;25.80;20.63;;;21.30;55.60;;;;;;5060534;28;46377;-63
2022/07/21 05:02:34;;;;;;;25.80;19.13;;;21.40;55.40;;;;;;5060714;28;46392;-61
2022/07/21 05:05:01;;;;;;;27.97;19.23;;;21.50;55.10;;;;;;5062830;28;46723;-63
2022/07/21 05:07:27;;;;;;;23.73;18.20;;;21.50;54.90;;;;;;5061769;28;47288;-63
2022/07/21 05:09:52;;;;;;;27.70;20.07;;;21.60;54.80;;;;;;5058159;28;46428;-63
2022/07/21 05:12:18;;;;;;;24.67;19.90;;;21.60;54.80;;;;;;5062538;28;46335;-63
2022/07/21 05:14:44;;;;;;;24.53;19.97;;;21.60;54.90;;;;;;5060489;28;46583;-63
2022/07/21 05:17:09;;;;;;;26.40;20.93;;;21.60;54.80;;;;;;5061643;28;47043;-63
2022/07/21 05:19:35;;;;;;;30.43;21.80;;;21.70;54.90;;;;;;5061218;28;46282;-62
2022/07/21 05:22:00;;;;;;;28.17;20.20;;;21.70;54.80;;;;;;5058934;28;46509;-62
2022/07/21 05:24:26;;;;;;;27.50;21.77;;;21.80;54.90;;;;;;5063312;28;46238;-62
2022/07/21 05:26:52;;;;;;;26.80;21.80;;;21.80;54.70;;;;;;5060472;28;46406;-62
2022/07/21 05:29:17;;;;;;;30.27;22.33;;;21.80;54.60;;;;;;5057183;28;46637;-62
2022/07/21 05:31:43;;;;;;;31.73;22.53;;;21.90;54.60;;;;;;5060147;28;46493;-63
2022/07/21 05:34:08;;;;;;;34.03;23.63;;;22.00;54.50;;;;;;5060741;28;46619;-62
2022/07/21 05:36:34;;;;;;;28.63;19.53;;;22.00;54.40;;;;;;5060665;28;46448;-63
2022/07/21 05:39:00;;;;;;;29.87;22.10;;;22.10;54.30;;;;;;5061828;28;46798;-62
2022/07/21 05:41:25;;;;;;;27.13;22.30;;;22.20;54.20;;;;;;5061219;28;46597;-62
2022/07/21 05:43:51;;;;;;;30.50;21.40;;;22.40;54.00;;;;;;5062174;28;46610;-62
2022/07/21 05:46:16;;;;;;;27.30;21.70;;;22.50;53.80;;;;;;5062311;28;46998;-62
2022/07/21 05:48:42;;;;;;;32.50;22.10;;;22.60;53.60;;;;;;5060728;28;46368;-63
2022/07/21 05:51:07;;;;;;;32.57;22.50;;;22.50;53.90;;;;;;5062266;28;46670;-62
2022/07/21 05:53:33;;;;;;;34.80;22.83;;;22.50;54.30;;;;;;5061903;28;46583;-63
2022/07/21 05:55:59;;;;;;;29.47;24.20;;;22.60;54.40;;;;;;5061555;28;46299;-63
2022/07/21 05:58:24;;;;;;;34.70;21.30;;;22.60;54.50;;;;;;5061380;28;46449;-63
2022/07/21 06:01:09;;;;;;;28.60;22.50;;;22.80;54.50;;;;;;5061819;28;46410;-63
2022/07/21 06:03:40;;;;;;;31.13;21.57;;;22.90;53.80;;;;;;5061674;28;46349;-63
2022/07/21 06:06:07;;;;;;;31.00;21.27;;;22.80;54.20;;;;;;5061817;28;46357;-64
2022/07/21 06:08:33;;;;;;;28.80;22.20;;;22.60;55.00;;;;;;5060583;28;46448;-62
2022/07/21 06:10:58;;;;;;;29.67;22.10;;;22.50;55.30;;;;;;5067098;28;46428;-61
2022/07/21 06:13:24;;;;;;;30.20;22.20;;;22.60;55.00;;;;;;5063895;28;46684;-61
2022/07/21 06:15:50;;;;;;;30.00;22.67;;;22.80;54.50;;;;;;5068545;28;46453;-62
2022/07/21 06:18:15;;;;;;;27.07;21.40;;;23.00;53.70;;;;;;5068413;28;46435;-62
2022/07/21 06:20:42;;;;;;;27.07;19.83;;;23.00;53.60;;;;;;5069080;28;46538;-62
2022/07/21 06:23:07;;;;;;;25.43;20.30;;;23.00;53.60;;;;;;5070958;28;46426;-62
2022/07/21 06:25:33;;;;;;;25.50;18.93;;;23.00;53.30;;;;;;5068931;28;46410;-61
2022/07/21 06:27:58;;;;;;;24.40;18.73;;;22.90;53.30;;;;;;5067743;28;46434;-61
2022/07/21 06:30:24;;;;;;;27.37;18.60;;;23.00;53.20;;;;;;5068028;28;47437;-62
2022/07/21 06:32:50;;;;;;;30.57;19.80;;;23.00;53.30;;;;;;5067118;28;46530;-61
2022/07/21 06:35:15;;;;;;;29.03;18.90;;;23.00;52.90;;;;;;5067885;28;46941;-61
2022/07/21 06:37:45;;;;;;;23.00;18.60;;;22.90;52.90;;;;;;5067804;28;46405;-60
2022/07/21 06:40:12;;;;;;;24.30;18.43;;;22.80;52.80;;;;;;5067021;28;46429;-59
2022/07/21 06:42:38;;;;;;;17.53;15.13;;;22.70;53.00;;;;;;5066622;28;46570;-60
2022/07/21 06:45:04;;;;;;;21.63;17.03;;;22.50;53.10;;;;;;5067899;28;46303;-60
2022/07/21 06:47:30;;;;;;;22.43;15.50;;;22.40;53.20;;;;;;5068181;28;46466;-62
2022/07/21 06:49:55;;;;;;;17.63;14.07;;;22.40;53.20;;;;;;5068430;28;46429;-61
2022/07/21 06:52:21;;;;;;;22.97;15.57;;;22.30;52.90;;;;;;5068461;28;46675;-60
2022/07/21 06:54:46;;;;;;;23.53;15.33;;;22.40;52.60;;;;;;5069489;28;46137;-60
2022/07/21 06:57:13;;;;;;;21.60;15.93;;;22.30;52.50;;;;;;5067203;28;46460;-61
2022/07/21 06:59:39;;;;;;;18.70;15.73;;;22.20;52.40;;;;;;5066764;28;46982;-61
2022/07/21 07:02:05;;;;;;;21.03;16.60;;;22.30;52.20;;;;;;5066610;28;46276;-61
2022/07/21 07:04:30;;;;;;;22.67;17.10;;;22.30;51.80;;;;;;5068924;28;46386;-63
2022/07/21 07:06:56;;;;;;;20.83;16.67;;;22.40;51.60;;;;;;5068141;28;45850;-61
2022/07/21 07:09:23;;;;;;;20.03;15.67;;;22.40;51.60;;;;;;5068228;28;46792;-61
2022/07/21 07:11:51;;;;;;;25.53;17.33;;;22.40;51.40;;;;;;5068134;28;46430;-61
2022/07/21 07:14:16;;;;;;;24.10;16.57;;;22.40;51.20;;;;;;5067944;28;47319;-62
2022/07/21 07:16:42;;;;;;;22.87;16.70;;;22.40;51.10;;;;;;5061698;28;45974;-61
2022/07/21 07:19:07;;;;;;;20.13;15.80;;;22.40;51.50;;;;;;5060264;28;46589;-61
2022/07/21 07:21:33;;;;;;;22.03;16.97;;;22.40;51.60;;;;;;5058337;28;46591;-62
2022/07/21 07:23:58;;;;;;;24.93;17.10;;;22.40;51.40;;;;;;5058850;28;46347;-62
2022/07/21 07:26:24;;;;;;;24.27;17.43;;;22.40;52.70;;;;;;5059467;28;45877;-61
2022/07/21 07:28:50;;;;;;;20.27;16.80;;;22.50;51.40;;;;;;5057817;28;46299;-62
2022/07/21 07:31:15;;;;;;;24.70;17.57;;;22.50;51.30;;;;;;5058821;28;45981;-61
2022/07/21 07:33:41;;;;;;;20.83;17.20;;;22.50;51.20;;;;;;5059335;28;48328;-62
2022/07/21 07:36:10;;;;;;;24.77;18.40;;;22.70;50.90;;;;;;5059699;28;46431;-62
2022/07/21 07:38:39;;;;;;;32.47;18.00;;;22.70;50.20;;;;;;5059131;28;46377;-61
2022/07/21 07:41:05;;;;;;;24.17;17.47;;;22.80;50.20;;;;;;5057287;28;46419;-61
2022/07/21 07:43:30;;;;;;;22.63;16.90;;;23.10;50.50;;;;;;5058844;28;46299;-62
2022/07/21 07:45:56;;;;;;;23.80;15.40;;;23.30;49.70;;;;;;5058675;28;46551;-62
2022/07/21 07:48:22;;;;;;;20.40;15.73;;;23.40;49.00;;;;;;5056281;28;46483;-62
2022/07/21 07:50:47;;;;;;;20.27;14.00;;;23.60;48.60;;;;;;5061170;28;46484;-62
2022/07/21 07:53:13;;;;;;;20.50;13.90;;;23.60;48.40;;;;;;5058528;28;46896;-61
2022/07/21 07:55:39;;;;;;;20.93;14.47;;;23.50;48.10;;;;;;5058817;28;46338;-61
2022/07/21 07:58:04;;;;;;;21.73;14.63;;;23.50;48.00;;;;;;5058976;28;46423;-61
2022/07/21 08:00:30;;;;;;;17.57;13.57;;;23.30;48.20;;;;;;5057544;28;46461;-61
2022/07/21 08:02:56;;;;;;;19.20;13.57;;;23.10;48.40;;;;;;5059426;28;46412;-62
2022/07/21 08:05:21;;;;;;;19.63;15.07;;;23.00;48.50;;;;;;5058703;28;46753;-62
2022/07/21 08:07:47;;;;;;;18.10;14.13;;;23.00;48.50;;;;;;5057235;28;46353;-62
2022/07/21 08:10:13;;;;;;;29.90;14.53;;;22.90;48.60;;;;;;5058716;28;46372;-61
2022/07/21 08:12:40;;;;;;;19.30;13.63;;;22.80;48.80;;;;;;5057342;28;46552;-62
2022/07/21 08:15:06;;;;;;;18.40;13.10;;;22.80;48.60;;;;;;5058541;28;46384;-61
2022/07/21 08:17:32;;;;;;;21.93;14.43;;;22.90;48.30;;;;;;5058606;28;46300;-62
2022/07/21 08:19:57;;;;;;;25.70;15.80;;;23.00;48.20;;;;;;5059728;28;46561;-60
2022/07/21 08:22:23;;;;;;;21.73;13.63;;;23.20;47.70;;;;;;5060935;28;46413;-62
2022/07/21 08:24:49;;;;;;;18.37;14.07;;;23.50;47.00;;;;;;5060360;28;46501;-61
2022/07/21 08:27:15;;;;;;;16.93;12.17;;;23.70;46.00;;;;;;5058920;28;46404;-59
2022/07/21 08:29:40;;;;;;;18.43;13.93;;;23.80;45.40;;;;;;5057973;28;46644;-61
2022/07/21 08:32:06;;;;;;;16.73;12.23;;;23.80;46.60;;;;;;5058412;28;48284;-59
2022/07/21 08:34:32;;;;;;;16.60;13.67;;;23.70;45.60;;;;;;5059528;28;45913;-61
2022/07/21 08:36:58;;;;;;;17.83;13.00;;;23.50;46.00;;;;;;5062123;28;46326;-60
2022/07/21 08:39:23;;;;;;;15.97;13.70;;;23.40;46.40;;;;;;5061750;28;46592;-60
2022/07/21 08:41:51;;;;;;;19.80;13.17;;;23.30;46.60;;;;;;5061139;28;46424;-60
2022/07/21 08:44:16;;;;;;;18.53;15.27;;;23.30;46.50;;;;;;5060913;28;46305;-59
2022/07/21 08:46:43;;;;;;;17.23;13.40;;;23.30;46.30;;;;;;5061067;28;46452;-61
2022/07/21 08:49:10;;;;;;;20.10;13.67;;;23.30;46.30;;;;;;5061401;28;46497;-61
2022/07/21 08:51:36;;;;;;;16.97;13.00;;;23.30;46.10;;;;;;5059088;28;46612;-61
2022/07/21 08:54:03;;;;;;;19.30;13.83;;;23.30;46.20;;;;;;5061363;28;45848;-61
2022/07/21 08:56:29;;;;;;;23.53;14.77;;;23.30;46.10;;;;;;5061379;28;46483;-62
2022/07/21 08:58:54;;;;;;;22.40;15.03;;;23.20;46.00;;;;;;5061651;28;46348;-60
2022/07/21 09:01:23;;;;;;;19.80;15.40;;;23.20;46.00;;;;;;5056690;28;46479;-62
2022/07/21 09:03:52;;;;;;;20.80;14.20;;;23.10;46.10;;;;;;5059564;28;46609;-61
2022/07/21 09:06:19;;;;;;;18.27;13.87;;;23.10;46.00;;;;;;5059982;28;46377;-59
2022/07/21 09:08:47;;;;;;;20.30;14.83;;;23.20;46.10;;;;;;5060010;28;46548;-60
2022/07/21 09:11:25;;;;;;;21.37;14.37;;;23.00;46.30;;;;;;5050556;28;46395;-60
2022/07/21 09:14:12;;;;;;;18.10;14.53;;;23.10;47.60;;;;;;5060205;28;46460;-61
2022/07/21 09:16:43;;;;;;;27.27;14.83;;;23.00;46.40;;;;;;5059540;28;46780;-59
2022/07/21 09:19:24;;;;;;;18.53;12.27;;;23.00;46.60;;;;;;5059348;28;46611;-59
2022/07/21 09:21:51;;;;;;;16.10;11.70;;;22.80;46.50;;;;;;5059143;28;46484;-60
2022/07/21 09:24:29;;;;;;;17.13;11.30;;;22.60;46.50;;;;;;5060765;28;46528;-60
2022/07/21 09:27:04;;;;;;;16.03;12.30;;;22.70;46.10;;;;;;5060738;28;46469;-60
2022/07/21 09:29:39;;;;;;;16.50;11.20;;;22.80;45.90;;;;;;5059297;28;46526;-61
2022/07/21 09:32:12;;;;;;;18.63;12.57;;;22.90;45.40;;;;;;5059988;28;47067;-60
2022/07/21 09:34:38;;;;;;;19.50;12.27;;;23.00;45.10;;;;;;5060691;28;46409;-59
2022/07/21 09:37:06;;;;;;;13.93;10.60;;;23.00;45.10;;;;;;5059730;28;46380;-61
2022/07/21 09:39:42;;;;;;;13.50;10.23;;;22.90;46.30;;;;;;5060108;28;46464;-60
2022/07/21 09:42:22;;;;;;;16.10;10.43;;;22.90;44.60;;;;;;5058240;28;47018;-60
2022/07/21 09:44:52;;;;;;;16.23;10.67;;;23.00;44.40;;;;;;5060481;28;46620;-61
2022/07/21 09:47:20;;;;;;;13.83;11.43;;;23.10;43.70;;;;;;5059366;28;46678;-60
2022/07/21 09:49:46;;;;;;;19.53;11.37;;;23.00;43.90;;;;;;5060182;28;46377;-61
2022/07/21 09:52:29;;;;;;;19.37;11.30;;;22.90;43.90;;;;;;5060248;28;46405;-60
2022/07/21 09:55:00;;;;;;;17.27;11.60;;;22.90;44.20;;;;;;5056218;28;46734;-60
2022/07/21 09:57:26;;;;;;;16.90;12.03;;;22.90;44.10;;;;;;5059280;28;45799;-60
2022/07/21 09:59:53;;;;;;;19.97;11.70;;;22.80;45.50;;;;;;5057750;28;46725;-60
2022/07/21 10:02:23;;;;;;;22.30;12.20;;;22.70;46.00;;;;;;5056582;28;46432;-61
2022/07/21 10:05:07;;;;;;;19.37;12.63;;;22.70;44.70;;;;;;5055711;28;46160;-62
2022/07/21 10:07:36;;;;;;;16.80;12.37;;;22.70;45.90;;;;;;5059299;28;46392;-61
2022/07/21 10:10:03;;;;;;;18.10;13.17;;;22.90;44.20;;;;;;5060723;28;46911;-61
2022/07/21 10:12:28;;;;;;;18.57;13.37;;;22.90;44.20;;;;;;5060653;28;47077;-61
2022/07/21 10:14:55;;;;;;;16.10;12.43;;;22.80;44.20;;;;;;5061477;28;46845;-60
2022/07/21 10:17:22;;;;;;;18.03;13.33;;;22.90;44.20;;;;;;5058799;28;46362;-60
2022/07/21 10:20:04;;;;;;;23.17;13.80;;;22.90;43.90;;;;;;5059938;28;46505;-60
2022/07/21 10:22:40;;;;;;;18.07;11.87;;;22.80;44.30;;;;;;5058551;28;48482;-61
2022/07/21 10:25:06;;;;;;;20.80;12.63;;;22.90;44.00;;;;;;5060447;28;46480;-62
2022/07/21 10:27:32;;;;;;;20.20;12.07;;;22.80;43.90;;;;;;5059679;28;45894;-61
2022/07/21 10:30:03;;;;;;;17.60;12.03;;;23.20;44.50;;;;;;5059176;28;45856;-62
2022/07/21 10:32:34;;;;;;;20.30;13.07;;;23.40;42.70;;;;;;5058746;28;46382;-62
2022/07/21 10:35:21;;;;;;;22.03;12.30;;;23.50;42.10;;;;;;5057763;28;46378;-62
2022/07/21 10:37:48;;;;;;;16.63;12.60;;;23.60;42.40;;;;;;5057832;28;46611;-61
2022/07/21 10:40:19;;;;;;;17.40;12.90;;;23.40;42.70;;;;;;5060475;28;46448;-61
2022/07/21 10:42:45;;;;;;;15.83;12.40;;;23.50;42.70;;;;;;5057142;28;47420;-61
2022/07/21 10:45:38;;;;;;;18.30;13.73;;;23.80;41.60;;;;;;5060835;28;45840;-61
2022/07/21 10:48:08;;;;;;;15.53;12.57;;;24.10;40.80;;;;;;5057517;28;46882;-60
2022/07/21 10:50:39;;;;;;;17.20;13.30;;;24.50;39.50;;;;;;5059932;28;46366;-60
2022/07/21 10:53:16;;;;;;;16.30;13.20;;;24.80;38.40;;;;;;5059021;28;46346;-62
2022/07/21 10:55:50;;;;;;;17.20;12.73;;;25.00;38.70;;;;;;5059417;28;46543;-62
2022/07/21 10:58:25;;;;;;;22.13;12.70;;;25.50;37.30;;;;;;5059541;28;46161;-63
2022/07/21 11:01:26;;;;;;;21.00;13.23;;;25.80;35.90;;;;;;5057352;28;46437;-63
2022/07/21 11:04:22;;;;;;;16.13;13.03;;;26.10;34.80;;;;;;5059837;28;46444;-64
2022/07/21 11:06:47;;;;;;;19.47;13.00;;;26.10;34.10;;;;;;5042697;28;46601;-64
2022/07/21 11:09:14;;;;;;;18.33;13.13;;;26.00;34.60;;;;;;5059607;28;46908;-65
2022/07/21 11:12:00;;;;;;;15.30;13.03;;;25.90;35.00;;;;;;5056051;28;46639;-65
2022/07/21 11:14:36;;;;;;;17.63;13.30;;;25.70;35.20;;;;;;5056186;28;46389;-63
2022/07/21 11:17:02;;;;;;;17.77;13.67;;;25.50;35.50;;;;;;5059223;28;46510;-63
2022/07/21 11:19:29;;;;;;;16.63;12.20;;;25.70;34.90;;;;;;5061014;28;46417;-63
2022/07/21 11:21:56;;;;;;;19.10;12.27;;;25.70;34.70;;;;;;5060017;28;46351;-63
2022/07/21 11:24:23;;;;;;;20.20;13.57;;;25.80;34.20;;;;;;5056108;28;46557;-63
2022/07/21 11:26:55;;;;;;;15.63;12.33;;;26.00;33.50;;;;;;5059690;28;46596;-62
2022/07/21 11:29:23;;;;;;;17.13;13.00;;;26.30;32.90;;;;;;5055262;28;46318;-63
2022/07/21 11:31:49;;;;;;;19.47;13.07;;;27.00;31.50;;;;;;5058476;28;46558;-63
2022/07/21 11:34:15;;;;;;;18.63;13.77;;;27.30;30.30;;;;;;5057020;28;47267;-63
2022/07/21 11:36:41;;;;;;;18.07;14.37;;;27.40;29.80;;;;;;5059199;28;46397;-64
2022/07/21 11:39:11;;;;;;;20.00;13.40;;;27.10;30.00;;;;;;5060161;28;46713;-63
2022/07/21 11:41:40;;;;;;;19.53;13.63;;;27.00;30.20;;;;;;5056415;28;46451;-63
2022/07/21 11:44:08;;;;;;;16.73;12.90;;;27.50;29.50;;;;;;5059317;28;47154;-63
2022/07/21 11:46:47;;;;;;;26.20;14.90;;;27.80;28.50;;;;;;5058414;28;46382;-63
2022/07/21 11:49:13;;;;;;;19.50;13.67;;;27.90;27.50;;;;;;5059902;28;46024;-64
2022/07/21 11:51:46;;;;;;;19.33;13.20;;;27.90;27.90;;;;;;5059631;28;46456;-63
2022/07/21 11:54:32;;;;;;;15.23;12.13;;;27.90;27.60;;;;;;5054523;28;46436;-62
2022/07/21 11:57:00;;;;;;;16.70;12.70;;;28.00;27.60;;;;;;5058445;28;46143;-62
2022/07/21 11:59:26;;;;;;;19.10;13.30;;;28.10;27.60;;;;;;5058980;28;46481;-63
2022/07/21 12:01:57;;;;;;;19.37;12.50;;;28.30;27.20;;;;;;5057085;28;46111;-63
2022/07/21 12:04:32;;;;;;;17.40;12.07;;;28.50;26.20;;;;;;5056493;28;46224;-63
2022/07/21 12:07:00;;;;;;;15.13;12.80;;;28.50;25.90;;;;;;5057506;28;46554;-63
2022/07/21 12:09:26;;;;;;;21.53;12.80;;;28.50;25.70;;;;;;5057787;28;45955;-62
2022/07/21 12:11:51;;;;;;;20.53;12.90;;;28.80;25.10;;;;;;5058548;28;46793;-63
2022/07/21 12:14:17;;;;;;;16.53;12.90;;;28.70;24.90;;;;;;5057737;28;48146;-63
2022/07/21 12:16:51;;;;;;;21.33;13.27;;;28.50;25.30;;;;;;5056323;28;46392;-62
2022/07/21 12:19:17;;;;;;;18.53;11.00;;;28.10;25.90;;;;;;5056757;28;46389;-63
2022/07/21 12:21:49;;;;;;;17.90;13.00;;;28.30;25.80;;;;;;5059232;28;46667;-64
2022/07/21 12:24:15;;;;;;;18.00;12.60;;;28.50;24.80;;;;;;5056460;28;46314;-62
2022/07/21 12:26:41;;;;;;;22.40;12.70;;;28.60;24.70;;;;;;5055889;28;46509;-62
2022/07/21 12:29:07;;;;;;;18.53;12.23;;;28.80;24.20;;;;;;5056697;28;46752;-62
2022/07/21 12:31:35;;;;;;;17.40;12.43;;;28.90;23.90;;;;;;5057682;28;45905;-61
2022/07/21 12:34:12;;;;;;;15.13;11.63;;;29.00;23.70;;;;;;5057254;28;47191;-63
2022/07/21 12:36:38;;;;;;;16.33;13.07;;;28.90;23.50;;;;;;5056775;28;46892;-63